createdAt,value
2019-01-11T00:00:44.688Z,102022.73
2019-01-11T00:01:52.099Z,102021.42
2019-01-11T00:02:59.134Z,102017.68
2019-01-11T00:04:06.645Z,102016.87
2019-01-11T00:05:13.964Z,102011.87
2019-01-11T00:06:21.020Z,102013.03
2019-01-11T00:07:28.368Z,102011.36
2019-01-11T00:08:35.030Z,102004.28
2019-01-11T00:09:41.761Z,102003.41
2019-01-11T00:10:48.982Z,102005.03
2019-01-11T00:11:56.039Z,102002.09
2019-01-11T00:13:03.147Z,101997.86
2019-01-11T00:14:09.889Z,102002.09
2019-01-11T00:15:16.612Z,102001.70
2019-01-11T00:16:23.554Z,102001.75
2019-01-11T00:17:30.206Z,101997.50
2019-01-11T00:18:37.332Z,101998.80
2019-01-11T00:19:44.028Z,102002.19
2019-01-11T00:20:50.694Z,101993.70
2019-01-11T00:21:57.827Z,101989.53
2019-01-11T00:23:05.188Z,101990.75
2019-01-11T00:24:12.591Z,101989.95
2019-01-11T00:25:19.770Z,101986.59
2019-01-11T00:26:26.830Z,101984.00
2019-01-11T00:27:33.939Z,101984.90
2019-01-11T00:28:40.660Z,101982.73
2019-01-11T00:29:47.343Z,101983.17
2019-01-11T00:30:54.345Z,101978.16
2019-01-11T00:32:01.071Z,101975.58
2019-01-11T00:33:07.818Z,101984.44
2019-01-11T00:34:14.801Z,101975.63
2019-01-11T00:35:21.966Z,101976.48
2019-01-11T00:36:29.117Z,101974.83
2019-01-11T00:37:36.213Z,101971.47
2019-01-11T00:38:42.875Z,101966.82
2019-01-11T00:39:49.550Z,101970.66
2019-01-11T00:40:56.666Z,101968.89
2019-01-11T00:42:03.353Z,101967.62
2019-01-11T00:43:14.993Z,101968.18
2019-01-11T00:44:19.016Z,101967.28
2019-01-11T00:45:26.504Z,101966.87
2019-01-11T00:46:33.232Z,101961.02
2019-01-11T00:47:40.057Z,101955.97
2019-01-11T00:48:46.754Z,101957.78
2019-01-11T00:49:53.710Z,101953.06
2019-01-11T00:51:00.421Z,101951.00
2019-01-11T00:52:07.158Z,101948.42
2019-01-11T00:53:14.038Z,101950.52
2019-01-11T00:54:20.696Z,101948.84
2019-01-11T00:55:27.396Z,101948.84
2019-01-11T00:56:34.102Z,101954.74
2019-01-11T00:57:40.996Z,101952.59
2019-01-11T00:58:47.879Z,101956.05
2019-01-11T00:59:54.538Z,101959.48
2019-01-11T01:01:01.239Z,101956.99
2019-01-11T01:02:08.467Z,101955.64
2019-01-11T01:03:15.132Z,101963.27
2019-01-11T01:04:21.808Z,101964.16
2019-01-11T01:05:28.917Z,101965.06
2019-01-11T01:06:38.489Z,101962.95
2019-01-11T01:07:45.708Z,101960.83
2019-01-11T01:08:52.427Z,101961.20
2019-01-11T01:09:59.106Z,101956.19
2019-01-11T01:11:07.117Z,101956.19
2019-01-11T01:12:13.934Z,101959.15
2019-01-11T01:13:20.746Z,101961.73
2019-01-11T01:14:27.414Z,101955.36
2019-01-11T01:15:34.072Z,101951.56
2019-01-11T01:16:40.802Z,101953.66
2019-01-11T01:17:47.768Z,101949.87
2019-01-11T01:18:54.754Z,101942.75
2019-01-11T01:20:01.592Z,101936.91
2019-01-11T01:21:08.871Z,101940.70
2019-01-11T01:22:15.631Z,101940.31
2019-01-11T01:23:22.289Z,101935.73
2019-01-11T01:24:29.047Z,101939.11
2019-01-11T01:25:36.262Z,101932.34
2019-01-11T01:26:42.953Z,101929.36
2019-01-11T01:27:50.120Z,101931.94
2019-01-11T01:28:56.792Z,101928.61
2019-01-11T01:30:04.065Z,101932.83
2019-01-11T01:31:11.035Z,101932.39
2019-01-11T01:32:17.676Z,101935.77
2019-01-11T01:33:24.404Z,101931.14
2019-01-11T01:34:31.067Z,101926.08
2019-01-11T01:35:37.843Z,101929.55
2019-01-11T01:36:44.983Z,101939.23
2019-01-11T01:37:51.742Z,101936.75
2019-01-11T01:38:58.426Z,101940.09
2019-01-11T01:40:06.561Z,101943.45
2019-01-11T01:41:13.247Z,101938.02
2019-01-11T01:42:20.268Z,101939.28
2019-01-11T01:43:27.405Z,101937.97
2019-01-11T01:44:34.482Z,101935.02
2019-01-11T01:45:41.351Z,101932.49
2019-01-11T01:46:48.052Z,101929.16
2019-01-11T01:47:54.698Z,101931.69
2019-01-11T01:49:01.924Z,101927.52
2019-01-11T01:50:09.940Z,101934.27
2019-01-11T01:51:16.686Z,101926.69
2019-01-11T01:52:23.525Z,101932.63
2019-01-11T01:53:30.175Z,101927.61
2019-01-11T01:54:36.935Z,101939.42
2019-01-11T01:55:44.372Z,101936.14
2019-01-11T01:56:51.776Z,101936.13
2019-01-11T01:57:58.906Z,101933.98
2019-01-11T01:59:05.717Z,101934.08
2019-01-11T02:00:17.550Z,101933.27
2019-01-11T02:01:24.237Z,101940.81
2019-01-11T02:02:31.262Z,101935.01
2019-01-11T02:03:38.022Z,101934.16
2019-01-11T02:04:45.175Z,101931.55
2019-01-11T02:05:52.493Z,101931.96
2019-01-11T02:06:59.611Z,101933.70
2019-01-11T02:08:06.412Z,101929.09
2019-01-11T02:09:13.135Z,101923.16
2019-01-11T02:10:19.833Z,101925.73
2019-01-11T02:11:26.486Z,101918.98
2019-01-11T02:12:33.277Z,101919.08
2019-01-11T02:13:40.546Z,101917.34
2019-01-11T02:14:47.480Z,101914.34
2019-01-11T02:15:54.197Z,101910.55
2019-01-11T02:17:00.889Z,101919.45
2019-01-11T02:18:08.010Z,101910.97
2019-01-11T02:19:14.774Z,101911.42
2019-01-11T02:20:21.459Z,101898.77
2019-01-11T02:21:28.138Z,101904.34
2019-01-11T02:22:35.205Z,101906.03
2019-01-11T02:23:41.929Z,101908.98
2019-01-11T02:24:48.601Z,101905.23
2019-01-11T02:25:55.334Z,101901.02
2019-01-11T02:27:01.998Z,101903.12
2019-01-11T02:28:08.744Z,101897.22
2019-01-11T02:29:15.860Z,101902.24
2019-01-11T02:30:24.704Z,101898.06
2019-01-11T02:31:31.358Z,101892.54
2019-01-11T02:32:38.509Z,101895.95
2019-01-11T02:33:45.488Z,101898.91
2019-01-11T02:34:52.171Z,101898.02
2019-01-11T02:35:58.924Z,101895.11
2019-01-11T02:37:05.676Z,101896.46
2019-01-11T02:38:12.474Z,101896.84
2019-01-11T02:39:19.176Z,101894.31
2019-01-11T02:40:25.899Z,101896.38
2019-01-11T02:41:33.298Z,101887.94
2019-01-11T02:42:40.451Z,101891.31
2019-01-11T02:43:47.423Z,101891.41
2019-01-11T02:44:54.165Z,101885.45
2019-01-11T02:46:00.835Z,101890.13
2019-01-11T02:47:07.922Z,101890.09
2019-01-11T02:48:14.664Z,101890.89
2019-01-11T02:49:21.410Z,101893.47
2019-01-11T02:50:28.318Z,101897.34
2019-01-11T02:51:35.010Z,101898.66
2019-01-11T02:52:41.821Z,101898.16
2019-01-11T02:53:48.866Z,101902.84
2019-01-11T02:54:55.563Z,101894.36
2019-01-11T02:56:02.658Z,101890.22
2019-01-11T02:57:09.347Z,101890.27
2019-01-11T02:58:16.853Z,101886.42
2019-01-11T02:59:23.857Z,101888.54
2019-01-11T03:00:30.585Z,101893.69
2019-01-11T03:01:37.242Z,101892.80
2019-01-11T03:02:43.951Z,101886.42
2019-01-11T03:03:50.640Z,101891.16
2019-01-11T03:04:57.740Z,101888.63
2019-01-11T03:06:04.653Z,101883.22
2019-01-11T03:07:11.310Z,101879.72
2019-01-11T03:08:18.438Z,101878.95
2019-01-11T03:09:25.144Z,101881.15
2019-01-11T03:10:32.190Z,101887.52
2019-01-11T03:11:38.943Z,101881.88
2019-01-11T03:12:46.438Z,101877.27
2019-01-11T03:13:53.181Z,101879.33
2019-01-11T03:14:59.980Z,101880.98
2019-01-11T03:16:07.055Z,101883.14
2019-01-11T03:17:13.822Z,101884.11
2019-01-11T03:18:20.846Z,101882.12
2019-01-11T03:19:27.537Z,101881.61
2019-01-11T03:20:34.705Z,101885.88
2019-01-11T03:21:41.760Z,101886.64
2019-01-11T03:22:49.114Z,101884.19
2019-01-11T03:23:56.087Z,101884.14
2019-01-11T03:25:02.810Z,101884.65
2019-01-11T03:26:09.877Z,101883.84
2019-01-11T03:27:16.643Z,101888.49
2019-01-11T03:28:23.451Z,101885.58
2019-01-11T03:29:30.590Z,101885.16
2019-01-11T03:30:37.350Z,101879.59
2019-01-11T03:31:44.137Z,101877.77
2019-01-11T03:32:51.640Z,101884.53
2019-01-11T03:33:58.562Z,101889.30
2019-01-11T03:35:15.437Z,101892.41
2019-01-11T03:36:22.451Z,101882.78
2019-01-11T03:37:29.115Z,101883.25
2019-01-11T03:38:35.859Z,101884.02
2019-01-11T03:39:43.170Z,101880.77
2019-01-11T03:40:49.891Z,101879.58
2019-01-11T03:42:03.207Z,101878.19
2019-01-11T03:43:10.301Z,101880.38
2019-01-11T03:44:16.988Z,101877.50
2019-01-11T03:45:25.615Z,101872.82
2019-01-11T03:46:32.600Z,101868.25
2019-01-11T03:47:39.742Z,101867.53
2019-01-11T03:48:46.748Z,101871.75
2019-01-11T03:49:54.928Z,101866.53
2019-01-11T03:51:02.004Z,101868.59
2019-01-11T03:52:08.686Z,101863.61
2019-01-11T03:53:15.724Z,101863.23
2019-01-11T03:54:22.669Z,101863.15
2019-01-11T03:55:29.349Z,101859.20
2019-01-11T03:56:36.442Z,101858.39
2019-01-11T03:57:43.387Z,101859.15
2019-01-11T03:58:50.057Z,101857.13
2019-01-11T03:59:57.092Z,101862.98
2019-01-11T04:01:03.854Z,101857.59
2019-01-11T04:02:10.573Z,101863.91
2019-01-11T04:03:17.238Z,101854.17
2019-01-11T04:04:24.291Z,101858.51
2019-01-11T04:05:31.291Z,101858.08
2019-01-11T04:06:38.061Z,101859.44
2019-01-11T04:07:45.261Z,101856.91
2019-01-11T04:08:51.955Z,101858.24
2019-01-11T04:09:58.988Z,101866.68
2019-01-11T04:11:05.868Z,101858.16
2019-01-11T04:12:12.616Z,101855.28
2019-01-11T04:13:30.477Z,101853.59
2019-01-11T04:14:33.816Z,101853.59
2019-01-11T04:15:40.526Z,101849.83
2019-01-11T04:16:47.218Z,101849.06
2019-01-11T04:18:13.331Z,101852.80
2019-01-11T04:19:19.989Z,101850.33
2019-01-11T04:20:26.673Z,101845.34
2019-01-11T04:21:33.364Z,101847.42
2019-01-11T04:22:48.002Z,101843.23
2019-01-11T04:23:55.046Z,101849.95
2019-01-11T04:25:06.492Z,101854.25
2019-01-11T04:26:13.577Z,101847.00
2019-01-11T04:27:20.321Z,101841.93
2019-01-11T04:28:27.880Z,101841.05
2019-01-11T04:29:34.576Z,101848.27
2019-01-11T04:30:41.304Z,101849.68
2019-01-11T04:31:48.402Z,101849.76
2019-01-11T04:32:55.101Z,101854.09
2019-01-11T04:34:01.795Z,101851.91
2019-01-11T04:35:09.163Z,101848.91
2019-01-11T04:36:16.183Z,101843.34
2019-01-11T04:37:23.172Z,101843.70
2019-01-11T04:38:29.942Z,101834.33
2019-01-11T04:39:36.679Z,101840.77
2019-01-11T04:40:43.838Z,101838.28
2019-01-11T04:41:50.590Z,101842.50
2019-01-11T04:42:57.338Z,101840.50
2019-01-11T04:44:04.561Z,101835.36
2019-01-11T04:45:12.166Z,101840.50
2019-01-11T04:46:18.921Z,101842.65
2019-01-11T04:47:25.655Z,101838.84
2019-01-11T04:48:32.358Z,101841.84
2019-01-11T04:49:40.356Z,101839.34
2019-01-11T04:50:47.113Z,101836.78
2019-01-11T04:51:53.815Z,101838.92
2019-01-11T04:53:00.556Z,101833.08
2019-01-11T04:54:07.256Z,101832.63
2019-01-11T04:55:14.732Z,101830.02
2019-01-11T04:56:21.430Z,101839.73
2019-01-11T04:57:28.157Z,101833.86
2019-01-11T04:58:34.900Z,101832.31
2019-01-11T04:59:41.612Z,101835.34
2019-01-11T05:00:48.302Z,101835.48
2019-01-11T05:01:55.401Z,101831.33
2019-01-11T05:03:02.237Z,101833.80
2019-01-11T05:04:08.946Z,101834.95
2019-01-11T05:05:15.656Z,101825.70
2019-01-11T05:06:22.383Z,101825.73
2019-01-11T05:07:29.324Z,101822.70
2019-01-11T05:08:36.038Z,101827.88
2019-01-11T05:09:42.862Z,101824.14
2019-01-11T05:10:49.884Z,101825.02
2019-01-11T05:11:56.553Z,101825.55
2019-01-11T05:13:21.015Z,101826.92
2019-01-11T05:14:27.709Z,101828.16
2019-01-11T05:15:34.419Z,101825.02
2019-01-11T05:16:41.678Z,101823.69
2019-01-11T05:17:48.441Z,101820.37
2019-01-11T05:18:55.526Z,101822.10
2019-01-11T05:20:02.183Z,101818.37
2019-01-11T05:21:09.152Z,101822.31
2019-01-11T05:22:15.867Z,101819.70
2019-01-11T05:23:22.874Z,101822.20
2019-01-11T05:24:29.657Z,101819.63
2019-01-11T05:25:36.355Z,101811.64
2019-01-11T05:26:43.132Z,101814.95
2019-01-11T05:27:50.291Z,101807.70
2019-01-11T05:28:57.027Z,101807.67
2019-01-11T05:30:03.762Z,101800.95
2019-01-11T05:31:10.573Z,101798.86
2019-01-11T05:32:17.623Z,101793.34
2019-01-11T05:33:24.606Z,101801.83
2019-01-11T05:34:31.340Z,101800.95
2019-01-11T05:35:38.413Z,101801.79
2019-01-11T05:36:45.480Z,101806.79
2019-01-11T05:37:52.175Z,101803.06
2019-01-11T05:38:59.192Z,101797.11
2019-01-11T05:40:09.691Z,101799.64
2019-01-11T05:41:16.836Z,101808.97
2019-01-11T05:42:23.502Z,101804.00
2019-01-11T05:43:30.168Z,101808.72
2019-01-11T05:44:37.507Z,101811.78
2019-01-11T05:45:44.547Z,101816.53
2019-01-11T05:46:51.376Z,101816.14
2019-01-11T05:47:58.101Z,101819.94
2019-01-11T05:49:05.232Z,101822.09
2019-01-11T05:50:15.099Z,101823.74
2019-01-11T05:51:21.772Z,101820.72
2019-01-11T05:52:28.533Z,101826.77
2019-01-11T05:53:35.490Z,101823.03
2019-01-11T05:54:42.571Z,101823.94
2019-01-11T05:55:50.787Z,101824.85
2019-01-11T05:56:57.806Z,101816.81
2019-01-11T05:58:28.975Z,101816.69
2019-01-11T05:59:35.948Z,101816.23
2019-01-11T06:00:42.968Z,101819.29
2019-01-11T06:01:49.669Z,101818.05
2019-01-11T06:02:56.496Z,101823.55
2019-01-11T06:04:05.199Z,101822.67
2019-01-11T06:05:12.900Z,101812.16
2019-01-11T06:06:19.829Z,101816.75
2019-01-11T06:07:48.355Z,101817.50
2019-01-11T06:08:55.404Z,101819.22
2019-01-11T06:10:03.091Z,101821.23
2019-01-11T06:11:10.013Z,101814.90
2019-01-11T06:12:17.132Z,101817.95
2019-01-11T06:13:24.738Z,101819.58
2019-01-11T06:14:31.700Z,101821.38
2019-01-11T06:15:38.416Z,101820.00
2019-01-11T06:16:45.102Z,101814.44
2019-01-11T06:17:52.424Z,101816.53
2019-01-11T06:18:59.138Z,101816.14
2019-01-11T06:20:11.157Z,101818.45
2019-01-11T06:21:17.895Z,101814.73
2019-01-11T06:22:24.942Z,101821.14
2019-01-11T06:23:31.868Z,101815.58
2019-01-11T06:24:38.910Z,101815.09
2019-01-11T06:25:46.137Z,101815.16
2019-01-11T06:26:53.229Z,101817.40
2019-01-11T06:27:59.915Z,101820.36
2019-01-11T06:29:07.754Z,101814.89
2019-01-11T06:30:16.268Z,101813.53
2019-01-11T06:31:22.972Z,101815.16
2019-01-11T06:32:29.821Z,101807.64
2019-01-11T06:33:36.839Z,101810.17
2019-01-11T06:34:43.630Z,101812.78
2019-01-11T06:35:50.328Z,101808.94
2019-01-11T06:36:57.113Z,101816.97
2019-01-11T06:38:04.969Z,101817.43
2019-01-11T06:39:11.700Z,101813.75
2019-01-11T06:40:18.459Z,101813.75
2019-01-11T06:41:27.028Z,101815.47
2019-01-11T06:42:34.003Z,101814.69
2019-01-11T06:43:41.167Z,101811.78
2019-01-11T06:44:47.855Z,101816.86
2019-01-11T06:45:54.899Z,101812.30
2019-01-11T06:47:02.008Z,101812.30
2019-01-11T06:48:16.517Z,101815.23
2019-01-11T06:49:23.547Z,101818.55
2019-01-11T06:50:36.354Z,101818.58
2019-01-11T06:51:39.206Z,101821.55
2019-01-11T06:52:46.139Z,101818.58
2019-01-11T06:53:53.235Z,101818.25
2019-01-11T06:54:59.880Z,101816.59
2019-01-11T06:56:07.376Z,101813.17
2019-01-11T06:57:14.536Z,101818.31
2019-01-11T06:58:21.222Z,101820.08
2019-01-11T06:59:28.545Z,101821.44
2019-01-11T07:00:35.978Z,101827.42
2019-01-11T07:01:42.620Z,101830.83
2019-01-11T07:02:49.287Z,101819.84
2019-01-11T07:03:56.672Z,101820.31
2019-01-11T07:05:03.396Z,101822.12
2019-01-11T07:06:10.230Z,101822.57
2019-01-11T07:07:17.368Z,101826.41
2019-01-11T07:08:24.074Z,101823.08
2019-01-11T07:09:30.787Z,101823.58
2019-01-11T07:10:37.550Z,101820.08
2019-01-11T07:11:44.265Z,101830.66
2019-01-11T07:12:50.942Z,101824.77
2019-01-11T07:13:57.673Z,101826.12
2019-01-11T07:15:04.767Z,101824.02
2019-01-11T07:16:11.469Z,101828.31
2019-01-11T07:17:18.503Z,101831.30
2019-01-11T07:18:25.599Z,101831.36
2019-01-11T07:19:32.394Z,101827.15
2019-01-11T07:20:42.909Z,101832.23
2019-01-11T07:21:48.100Z,101824.19
2019-01-11T07:22:54.779Z,101824.66
2019-01-11T07:24:01.941Z,101825.14
2019-01-11T07:25:10.098Z,101825.09
2019-01-11T07:26:16.775Z,101822.09
2019-01-11T07:27:24.103Z,101828.48
2019-01-11T07:28:31.441Z,101823.78
2019-01-11T07:29:38.277Z,101822.52
2019-01-11T07:30:58.617Z,101823.42
2019-01-11T07:32:05.699Z,101829.80
2019-01-11T07:33:18.397Z,101826.91
2019-01-11T07:34:25.142Z,101828.62
2019-01-11T07:35:46.440Z,101824.91
2019-01-11T07:36:55.298Z,101822.81
2019-01-11T07:38:02.015Z,101821.14
2019-01-11T07:39:23.991Z,101822.87
2019-01-11T07:40:30.697Z,101827.17
2019-01-11T07:41:37.382Z,101824.26
2019-01-11T07:42:44.052Z,101825.58
2019-01-11T07:43:52.013Z,101826.05
2019-01-11T07:44:59.139Z,101826.45
2019-01-11T07:46:06.163Z,101823.95
2019-01-11T07:47:12.920Z,101823.91
2019-01-11T07:48:19.843Z,101824.83
2019-01-11T07:49:26.593Z,101823.56
2019-01-11T07:50:33.291Z,101822.30
2019-01-11T07:51:40.450Z,101817.64
2019-01-11T07:52:47.221Z,101813.05
2019-01-11T07:53:53.927Z,101809.69
2019-01-11T07:55:01.384Z,101819.36
2019-01-11T07:56:08.211Z,101818.56
2019-01-11T07:57:15.238Z,101818.14
2019-01-11T07:58:21.956Z,101816.42
2019-01-11T07:59:28.951Z,101815.63
2019-01-11T08:00:36.110Z,101823.67
2019-01-11T08:01:43.250Z,101816.02
2019-01-11T08:02:49.909Z,101815.24
2019-01-11T08:03:56.932Z,101819.03
2019-01-11T08:05:03.631Z,101818.28
2019-01-11T08:06:10.712Z,101812.67
2019-01-11T08:07:17.916Z,101811.80
2019-01-11T08:08:24.612Z,101811.88
2019-01-11T08:09:31.324Z,101806.77
2019-01-11T08:10:38.329Z,101810.13
2019-01-11T08:11:45.405Z,101808.91
2019-01-11T08:12:52.486Z,101805.55
2019-01-11T08:13:59.907Z,101805.52
2019-01-11T08:15:08.158Z,101805.58
2019-01-11T08:16:14.843Z,101802.64
2019-01-11T08:17:21.999Z,101799.20
2019-01-11T08:18:29.067Z,101804.28
2019-01-11T08:19:35.747Z,101803.51
2019-01-11T08:20:42.460Z,101800.09
2019-01-11T08:21:49.443Z,101797.56
2019-01-11T08:22:56.379Z,101796.30
2019-01-11T08:24:03.275Z,101803.11
2019-01-11T08:25:11.240Z,101804.52
2019-01-11T08:26:18.440Z,101812.16
2019-01-11T08:27:25.530Z,101809.17
2019-01-11T08:28:34.361Z,101805.79
2019-01-11T08:29:41.061Z,101805.79
2019-01-11T08:30:49.763Z,101807.02
2019-01-11T08:31:56.515Z,101812.11
2019-01-11T08:33:04.999Z,101807.04
2019-01-11T08:34:11.687Z,101810.83
2019-01-11T08:35:18.965Z,101813.00
2019-01-11T08:36:25.775Z,101810.41
2019-01-11T08:37:32.704Z,101811.70
2019-01-11T08:38:39.861Z,101813.00
2019-01-11T08:39:46.639Z,101806.25
2019-01-11T08:40:53.373Z,101810.09
2019-01-11T08:42:00.063Z,101806.66
2019-01-11T08:43:06.837Z,101807.09
2019-01-11T08:44:14.244Z,101807.16
2019-01-11T08:45:21.447Z,101805.94
2019-01-11T08:46:28.129Z,101801.75
2019-01-11T08:47:34.834Z,101807.30
2019-01-11T08:48:42.003Z,101803.50
2019-01-11T08:49:49.266Z,101803.16
2019-01-11T08:51:02.480Z,101803.57
2019-01-11T08:52:04.689Z,101799.73
2019-01-11T08:53:11.671Z,101796.81
2019-01-11T08:54:18.642Z,101803.67
2019-01-11T08:55:25.408Z,101798.60
2019-01-11T08:56:32.092Z,101800.78
2019-01-11T08:57:38.861Z,101803.77
2019-01-11T08:58:46.314Z,101798.25
2019-01-11T08:59:52.999Z,101798.68
2019-01-11T09:01:00.100Z,101799.11
2019-01-11T09:02:06.866Z,101795.77
2019-01-11T09:03:13.685Z,101797.48
2019-01-11T09:04:20.364Z,101794.06
2019-01-11T09:05:27.370Z,101793.25
2019-01-11T09:06:34.358Z,101793.27
2019-01-11T09:07:41.157Z,101798.40
2019-01-11T09:08:47.850Z,101795.02
2019-01-11T09:09:54.735Z,101795.42
2019-01-11T09:11:01.846Z,101798.00
2019-01-11T09:12:08.903Z,101798.02
2019-01-11T09:13:15.566Z,101792.52
2019-01-11T09:14:47.030Z,101795.02
2019-01-11T09:15:53.701Z,101790.38
2019-01-11T09:17:01.098Z,101791.26
2019-01-11T09:18:15.534Z,101791.26
2019-01-11T09:19:22.656Z,101791.70
2019-01-11T09:20:29.338Z,101788.75
2019-01-11T09:21:41.565Z,101792.61
2019-01-11T09:22:45.092Z,101794.28
2019-01-11T09:23:52.141Z,101795.58
2019-01-11T09:24:58.847Z,101794.75
2019-01-11T09:26:05.956Z,101793.48
2019-01-11T09:27:13.293Z,101790.95
2019-01-11T09:28:20.138Z,101788.01
2019-01-11T09:29:27.145Z,101794.35
2019-01-11T09:30:34.282Z,101791.81
2019-01-11T09:31:40.944Z,101793.52
2019-01-11T09:32:48.413Z,101795.64
2019-01-11T09:33:55.112Z,101796.98
2019-01-11T09:35:02.001Z,101794.42
2019-01-11T09:36:09.038Z,101797.41
2019-01-11T09:37:16.059Z,101795.71
2019-01-11T09:38:22.748Z,101802.94
2019-01-11T09:39:29.475Z,101797.88
2019-01-11T09:40:36.504Z,101800.88
2019-01-11T09:41:43.214Z,101798.78
2019-01-11T09:42:50.347Z,101809.00
2019-01-11T09:43:57.024Z,101802.20
2019-01-11T09:45:03.694Z,101809.00
2019-01-11T09:46:10.986Z,101803.41
2019-01-11T09:47:17.662Z,101802.13
2019-01-11T09:48:24.384Z,101804.74
2019-01-11T09:49:32.429Z,101800.92
2019-01-11T09:50:39.658Z,101809.42
2019-01-11T09:51:47.072Z,101803.08
2019-01-11T09:52:53.740Z,101803.94
2019-01-11T09:54:00.786Z,101801.44
2019-01-11T09:55:08.666Z,101805.28
2019-01-11T09:56:15.965Z,101805.27
2019-01-11T09:57:23.037Z,101801.91
2019-01-11T09:58:30.046Z,101804.02
2019-01-11T09:59:36.770Z,101802.73
2019-01-11T10:00:44.345Z,101803.55
2019-01-11T10:02:04.676Z,101804.84
2019-01-11T10:03:12.633Z,101805.69
2019-01-11T10:04:24.271Z,101805.29
2019-01-11T10:05:31.294Z,101805.69
2019-01-11T10:06:42.132Z,101803.11
2019-01-11T10:07:48.812Z,101796.72
2019-01-11T10:08:55.557Z,101797.61
2019-01-11T10:10:02.219Z,101803.97
2019-01-11T10:11:09.288Z,101800.20
2019-01-11T10:12:16.599Z,101802.33
2019-01-11T10:13:24.085Z,101802.75
2019-01-11T10:14:30.783Z,101795.54
2019-01-11T10:15:37.917Z,101798.52
2019-01-11T10:16:44.959Z,101798.91
2019-01-11T10:17:52.335Z,101801.05
2019-01-11T10:18:59.376Z,101797.23
2019-01-11T10:20:07.311Z,101800.23
2019-01-11T10:21:14.021Z,101796.41
2019-01-11T10:22:20.711Z,101797.25
2019-01-11T10:23:27.828Z,101798.08
2019-01-11T10:24:34.763Z,101796.41
2019-01-11T10:25:41.400Z,101804.89
2019-01-11T10:26:48.080Z,101795.14
2019-01-11T10:27:54.850Z,101800.64
2019-01-11T10:29:02.354Z,101797.28
2019-01-11T10:30:16.201Z,101796.86
2019-01-11T10:31:23.415Z,101803.22
2019-01-11T10:32:30.263Z,101794.31
2019-01-11T10:33:36.937Z,101795.15
2019-01-11T10:34:44.330Z,101796.84
2019-01-11T10:35:51.355Z,101795.17
2019-01-11T10:36:58.391Z,101797.29
2019-01-11T10:38:05.640Z,101794.72
2019-01-11T10:39:12.321Z,101796.45
2019-01-11T10:40:19.836Z,101787.11
2019-01-11T10:41:26.509Z,101784.55
2019-01-11T10:42:33.213Z,101788.40
2019-01-11T10:43:39.888Z,101790.95
2019-01-11T10:44:46.978Z,101788.83
2019-01-11T10:45:53.642Z,101785.88
2019-01-11T10:47:00.297Z,101783.33
2019-01-11T10:48:07.835Z,101787.13
2019-01-11T10:49:14.783Z,101785.44
2019-01-11T10:50:21.750Z,101786.30
2019-01-11T10:51:28.842Z,101786.31
2019-01-11T10:52:35.493Z,101784.62
2019-01-11T10:53:42.176Z,101784.22
2019-01-11T10:54:49.325Z,101786.75
2019-01-11T10:55:56.005Z,101788.89
2019-01-11T10:57:02.668Z,101791.89
2019-01-11T10:58:09.471Z,101792.74
2019-01-11T10:59:16.106Z,101784.23
2019-01-11T11:00:27.658Z,101783.78
2019-01-11T11:01:34.668Z,101782.52
2019-01-11T11:02:41.743Z,101789.75
2019-01-11T11:03:48.761Z,101778.67
2019-01-11T11:04:55.446Z,101783.78
2019-01-11T11:06:02.138Z,101788.45
2019-01-11T11:07:09.300Z,101787.59
2019-01-11T11:08:16.348Z,101789.31
2019-01-11T11:09:23.337Z,101790.63
2019-01-11T11:10:30.351Z,101777.47
2019-01-11T11:11:37.119Z,101779.14
2019-01-11T11:12:43.900Z,101779.60
2019-01-11T11:13:50.930Z,101772.34
2019-01-11T11:14:57.993Z,101767.22
2019-01-11T11:16:04.971Z,101769.82
2019-01-11T11:17:11.828Z,101775.78
2019-01-11T11:18:18.478Z,101777.45
2019-01-11T11:19:25.345Z,101775.80
2019-01-11T11:20:32.350Z,101778.80
2019-01-11T11:21:39.040Z,101774.95
2019-01-11T11:22:46.053Z,101778.80
2019-01-11T11:23:54.162Z,101779.24
2019-01-11T11:25:01.683Z,101781.36
2019-01-11T11:26:08.811Z,101780.11
2019-01-11T11:27:15.502Z,101783.91
2019-01-11T11:28:22.124Z,101775.39
2019-01-11T11:29:29.182Z,101775.00
2019-01-11T11:30:36.268Z,101776.27
2019-01-11T11:31:42.969Z,101771.98
2019-01-11T11:32:59.745Z,101774.98
2019-01-11T11:34:07.027Z,101771.16
2019-01-11T11:35:13.736Z,101772.42
2019-01-11T11:36:20.389Z,101768.96
2019-01-11T11:37:29.098Z,101766.83
2019-01-11T11:38:35.770Z,101763.87
2019-01-11T11:39:42.442Z,101761.79
2019-01-11T11:40:49.347Z,101755.41
2019-01-11T11:41:55.993Z,101764.34
2019-01-11T11:43:02.878Z,101764.78
2019-01-11T11:44:11.643Z,101766.07
2019-01-11T11:45:19.016Z,101761.41
2019-01-11T11:46:26.001Z,101759.26
2019-01-11T11:47:32.673Z,101760.95
2019-01-11T11:48:40.111Z,101754.16
2019-01-11T11:49:46.792Z,101755.01
2019-01-11T11:50:53.827Z,101753.73
2019-01-11T11:52:01.165Z,101752.45
2019-01-11T11:53:07.857Z,101753.31
2019-01-11T11:54:14.688Z,101745.64
2019-01-11T11:55:21.373Z,101743.53
2019-01-11T11:56:28.092Z,101744.80
2019-01-11T11:57:35.157Z,101738.41
2019-01-11T11:58:42.267Z,101740.12
2019-01-11T11:59:49.041Z,101739.27
2019-01-11T12:00:55.832Z,101742.66
2019-01-11T12:02:02.868Z,101742.66
2019-01-11T12:03:10.352Z,101740.11
2019-01-11T12:04:16.993Z,101738.41
2019-01-11T12:05:24.117Z,101739.68
2019-01-11T12:06:30.829Z,101735.86
2019-01-11T12:07:37.579Z,101735.88
2019-01-11T12:08:44.317Z,101736.69
2019-01-11T12:09:51.419Z,101733.72
2019-01-11T12:10:58.447Z,101735.42
2019-01-11T12:12:05.559Z,101736.70
2019-01-11T12:13:12.259Z,101732.00
2019-01-11T12:14:18.952Z,101727.74
2019-01-11T12:15:25.939Z,101730.33
2019-01-11T12:16:32.597Z,101734.58
2019-01-11T12:17:39.340Z,101732.02
2019-01-11T12:18:46.636Z,101737.95
2019-01-11T12:19:57.022Z,101732.44
2019-01-11T12:21:02.047Z,101729.05
2019-01-11T12:22:08.831Z,101731.16
2019-01-11T12:23:15.456Z,101727.34
2019-01-11T12:24:22.126Z,101729.47
2019-01-11T12:25:29.135Z,101729.06
2019-01-11T12:26:36.297Z,101726.50
2019-01-11T12:27:43.313Z,101723.53
2019-01-11T12:28:49.963Z,101714.58
2019-01-11T12:29:56.644Z,101715.00
2019-01-11T12:31:03.346Z,101718.83
2019-01-11T12:32:10.190Z,101716.30
2019-01-11T12:33:16.834Z,101713.73
2019-01-11T12:34:23.512Z,101720.53
2019-01-11T12:35:30.921Z,101720.12
2019-01-11T12:36:37.637Z,101718.83
2019-01-11T12:37:44.548Z,101712.46
2019-01-11T12:38:51.201Z,101711.59
2019-01-11T12:39:57.906Z,101706.48
2019-01-11T12:41:05.037Z,101717.14
2019-01-11T12:42:13.301Z,101711.19
2019-01-11T12:43:20.171Z,101717.13
2019-01-11T12:44:26.928Z,101722.24
2019-01-11T12:45:33.631Z,101709.03
2019-01-11T12:46:40.356Z,101708.20
2019-01-11T12:47:47.008Z,101706.48
2019-01-11T12:48:53.877Z,101706.92